sensor_id;sensor_type;location;lat;lon;timestamp;temperature;humidity
19174;DHT22;9719;49.322;8.536;2023-09-30T00:00:01;17.50;99.90
19174;DHT22;9719;49.322;8.536;2023-09-30T00:05:06;17.50;99.90
19174;DHT22;9719;49.322;8.536;2023-09-30T00:10:10;17.50;99.90
19174;DHT22;9719;49.322;8.536;2023-09-30T00:15:11;17.50;99.90
19174;DHT22;9719;49.322;8.536;2023-09-30T00:20:13;17.50;99.90
19174;DHT22;9719;49.322;8.536;2023-09-30T00:25:17;17.30;99.90
19174;DHT22;9719;49.322;8.536;2023-09-30T00:30:19;17.20;99.90
19174;DHT22;9719;49.322;8.536;2023-09-30T00:35:22;17.30;99.90
19174;DHT22;9719;49.322;8.536;2023-09-30T00:40:25;17.30;99.90
19174;DHT22;9719;49.322;8.536;2023-09-30T00:45:27;17.30;99.90
19174;DHT22;9719;49.322;8.536;2023-09-30T00:50:29;17.30;99.90
19174;DHT22;9719;49.322;8.536;2023-09-30T00:55:32;17.30;99.90
19174;DHT22;9719;49.322;8.536;2023-09-30T01:00:35;17.30;99.90
19174;DHT22;9719;49.322;8.536;2023-09-30T01:05:36;17.30;99.90
19174;DHT22;9719;49.322;8.536;2023-09-30T01:10:39;17.30;99.90
19174;DHT22;9719;49.322;8.536;2023-09-30T01:15:41;17.00;99.90
19174;DHT22;9719;49.322;8.536;2023-09-30T01:20:43;16.80;99.90
19174;DHT22;9719;49.322;8.536;2023-09-30T01:25:46;16.60;99.90
19174;DHT22;9719;49.322;8.536;2023-09-30T01:30:48;16.60;99.90
19174;DHT22;9719;49.322;8.536;2023-09-30T01:35:49;16.30;99.90
19174;DHT22;9719;49.322;8.536;2023-09-30T01:40:52;16.30;99.90
19174;DHT22;9719;49.322;8.536;2023-09-30T01:45:54;16.50;99.90
19174;DHT22;9719;49.322;8.536;2023-09-30T01:50:56;16.70;99.90
19174;DHT22;9719;49.322;8.536;2023-09-30T01:55:59;16.80;99.90
19174;DHT22;9719;49.322;8.536;2023-09-30T02:01:02;16.60;99.90
19174;DHT22;9719;49.322;8.536;2023-09-30T02:06:04;16.30;99.90
19174;DHT22;9719;49.322;8.536;2023-09-30T02:11:07;16.20;99.90
19174;DHT22;9719;49.322;8.536;2023-09-30T02:16:11;16.10;99.90
19174;DHT22;9719;49.322;8.536;2023-09-30T02:21:13;16.10;99.90
19174;DHT22;9719;49.322;8.536;2023-09-30T02:26:16;16.20;99.90
19174;DHT22;9719;49.322;8.536;2023-09-30T02:31:18;16.30;99.90
19174;DHT22;9719;49.322;8.536;2023-09-30T02:36:20;16.30;99.90
19174;DHT22;9719;49.322;8.536;2023-09-30T02:41:23;16.30;99.90
19174;DHT22;9719;49.322;8.536;2023-09-30T02:46:24;16.40;99.90
19174;DHT22;9719;49.322;8.536;2023-09-30T02:51:28;16.30;99.90
19174;DHT22;9719;49.322;8.536;2023-09-30T02:56:32;16.30;99.90
19174;DHT22;9719;49.322;8.536;2023-09-30T03:01:34;16.40;99.90
19174;DHT22;9719;49.322;8.536;2023-09-30T03:06:35;16.50;99.90
19174;DHT22;9719;49.322;8.536;2023-09-30T03:11:40;16.40;99.90
19174;DHT22;9719;49.322;8.536;2023-09-30T03:16:43;16.40;99.90
19174;DHT22;9719;49.322;8.536;2023-09-30T03:21:45;16.30;99.90
19174;DHT22;9719;49.322;8.536;2023-09-30T03:26:48;16.40;99.90
19174;DHT22;9719;49.322;8.536;2023-09-30T03:31:50;16.10;99.90
19174;DHT22;9719;49.322;8.536;2023-09-30T03:36:52;16.00;99.90
19174;DHT22;9719;49.322;8.536;2023-09-30T03:42:00;16.00;99.90
19174;DHT22;9719;49.322;8.536;2023-09-30T03:47:03;15.90;99.90
19174;DHT22;9719;49.322;8.536;2023-09-30T03:52:05;16.00;99.90
19174;DHT22;9719;49.322;8.536;2023-09-30T03:57:08;15.90;99.90
19174;DHT22;9719;49.322;8.536;2023-09-30T04:02:13;15.80;99.90
19174;DHT22;9719;49.322;8.536;2023-09-30T04:07:15;15.70;99.90
19174;DHT22;9719;49.322;8.536;2023-09-30T04:12:18;15.60;99.90
19174;DHT22;9719;49.322;8.536;2023-09-30T04:17:20;15.30;99.90
19174;DHT22;9719;49.322;8.536;2023-09-30T04:22:23;15.20;99.90
19174;DHT22;9719;49.322;8.536;2023-09-30T04:27:27;15.30;99.90
19174;DHT22;9719;49.322;8.536;2023-09-30T04:32:29;15.30;99.90
19174;DHT22;9719;49.322;8.536;2023-09-30T04:37:31;15.40;99.90
19174;DHT22;9719;49.322;8.536;2023-09-30T04:42:34;15.30;99.90
19174;DHT22;9719;49.322;8.536;2023-09-30T04:47:37;15.10;99.90
19174;DHT22;9719;49.322;8.536;2023-09-30T04:52:39;14.80;99.90
19174;DHT22;9719;49.322;8.536;2023-09-30T04:57:42;14.80;99.90
19174;DHT22;9719;49.322;8.536;2023-09-30T05:02:45;14.50;99.90
19174;DHT22;9719;49.322;8.536;2023-09-30T05:07:48;14.40;99.90
19174;DHT22;9719;49.322;8.536;2023-09-30T05:12:51;14.30;99.90
19174;DHT22;9719;49.322;8.536;2023-09-30T05:17:54;14.30;99.90
19174;DHT22;9719;49.322;8.536;2023-09-30T05:22:56;14.30;99.90
19174;DHT22;9719;49.322;8.536;2023-09-30T05:27:59;14.20;99.90
19174;DHT22;9719;49.322;8.536;2023-09-30T05:33:01;14.20;99.90
19174;DHT22;9719;49.322;8.536;2023-09-30T05:38:03;13.90;99.90
19174;DHT22;9719;49.322;8.536;2023-09-30T05:43:07;13.90;99.90
19174;DHT22;9719;49.322;8.536;2023-09-30T05:48:09;13.90;99.90
19174;DHT22;9719;49.322;8.536;2023-09-30T05:53:11;14.10;99.90
19174;DHT22;9719;49.322;8.536;2023-09-30T05:58:15;14.20;99.90
19174;DHT22;9719;49.322;8.536;2023-09-30T06:03:17;14.30;99.90
19174;DHT22;9719;49.322;8.536;2023-09-30T06:08:19;14.40;99.90
19174;DHT22;9719;49.322;8.536;2023-09-30T06:13:22;14.50;99.90
19174;DHT22;9719;49.322;8.536;2023-09-30T06:18:24;14.70;99.90
19174;DHT22;9719;49.322;8.536;2023-09-30T06:23:26;15.00;99.90
19174;DHT22;9719;49.322;8.536;2023-09-30T06:28:31;15.10;99.90
19174;DHT22;9719;49.322;8.536;2023-09-30T06:33:40;15.20;99.90
19174;DHT22;9719;49.322;8.536;2023-09-30T06:38:43;15.40;99.90
19174;DHT22;9719;49.322;8.536;2023-09-30T06:43:50;15.70;99.90
19174;DHT22;9719;49.322;8.536;2023-09-30T06:48:52;15.90;99.90
19174;DHT22;9719;49.322;8.536;2023-09-30T06:53:54;16.00;99.90
19174;DHT22;9719;49.322;8.536;2023-09-30T06:58:56;16.10;99.90
19174;DHT22;9719;49.322;8.536;2023-09-30T07:03:58;16.20;99.90
19174;DHT22;9719;49.322;8.536;2023-09-30T07:09:00;16.30;99.90
19174;DHT22;9719;49.322;8.536;2023-09-30T07:14:03;16.50;99.90
19174;DHT22;9719;49.322;8.536;2023-09-30T07:19:05;16.40;99.90
19174;DHT22;9719;49.322;8.536;2023-09-30T07:24:07;16.50;99.90
19174;DHT22;9719;49.322;8.536;2023-09-30T07:29:10;16.90;99.90
19174;DHT22;9719;49.322;8.536;2023-09-30T07:34:12;17.00;99.90
19174;DHT22;9719;49.322;8.536;2023-09-30T07:39:13;17.20;99.90
19174;DHT22;9719;49.322;8.536;2023-09-30T07:44:16;17.40;99.90
19174;DHT22;9719;49.322;8.536;2023-09-30T07:49:18;17.60;99.90
19174;DHT22;9719;49.322;8.536;2023-09-30T07:54:20;17.60;99.90
19174;DHT22;9719;49.322;8.536;2023-09-30T07:59:23;17.90;99.90
19174;DHT22;9719;49.322;8.536;2023-09-30T08:04:24;18.20;99.90
19174;DHT22;9719;49.322;8.536;2023-09-30T08:09:26;18.20;99.90
19174;DHT22;9719;49.322;8.536;2023-09-30T08:14:29;18.00;98.90
19174;DHT22;9719;49.322;8.536;2023-09-30T08:19:31;18.00;99.20
19174;DHT22;9719;49.322;8.536;2023-09-30T08:24:33;18.30;96.00
19174;DHT22;9719;49.322;8.536;2023-09-30T08:29:36;18.60;95.80
19174;DHT22;9719;49.322;8.536;2023-09-30T08:34:37;18.60;92.60
19174;DHT22;9719;49.322;8.536;2023-09-30T08:39:39;18.90;91.40
19174;DHT22;9719;49.322;8.536;2023-09-30T08:44:43;18.90;91.60
19174;DHT22;9719;49.322;8.536;2023-09-30T08:49:46;19.00;89.90
19174;DHT22;9719;49.322;8.536;2023-09-30T08:54:49;19.20;87.60
19174;DHT22;9719;49.322;8.536;2023-09-30T08:59:53;19.40;86.90
19174;DHT22;9719;49.322;8.536;2023-09-30T09:04:54;19.20;87.30
19174;DHT22;9719;49.322;8.536;2023-09-30T09:10:06;19.70;85.20
19174;DHT22;9719;49.322;8.536;2023-09-30T09:15:20;19.60;83.90
19174;DHT22;9719;49.322;8.536;2023-09-30T09:20:24;20.20;82.70
19174;DHT22;9719;49.322;8.536;2023-09-30T09:25:26;20.40;79.30
19174;DHT22;9719;49.322;8.536;2023-09-30T09:30:30;19.80;81.20
19174;DHT22;9719;49.322;8.536;2023-09-30T09:35:33;20.50;78.80
19174;DHT22;9719;49.322;8.536;2023-09-30T09:40:36;20.70;78.80
19174;DHT22;9719;49.322;8.536;2023-09-30T09:45:42;20.80;76.20
19174;DHT22;9719;49.322;8.536;2023-09-30T09:50:46;21.30;76.60
19174;DHT22;9719;49.322;8.536;2023-09-30T09:55:52;21.20;75.10
19174;DHT22;9719;49.322;8.536;2023-09-30T10:00:57;21.00;74.10
19174;DHT22;9719;49.322;8.536;2023-09-30T10:11:02;20.70;76.30
19174;DHT22;9719;49.322;8.536;2023-09-30T10:16:05;20.90;74.70
19174;DHT22;9719;49.322;8.536;2023-09-30T10:21:08;20.90;73.50
19174;DHT22;9719;49.322;8.536;2023-09-30T10:26:16;21.20;74.10
19174;DHT22;9719;49.322;8.536;2023-09-30T10:31:21;21.20;73.40
19174;DHT22;9719;49.322;8.536;2023-09-30T10:36:28;21.10;73.00
19174;DHT22;9719;49.322;8.536;2023-09-30T10:41:49;21.60;72.40
19174;DHT22;9719;49.322;8.536;2023-09-30T10:46:53;21.90;73.20
19174;DHT22;9719;49.322;8.536;2023-09-30T10:51:56;22.30;70.70
19174;DHT22;9719;49.322;8.536;2023-09-30T10:56:59;21.80;70.00
19174;DHT22;9719;49.322;8.536;2023-09-30T11:02:02;21.60;71.10
19174;DHT22;9719;49.322;8.536;2023-09-30T11:07:04;22.10;70.00
19174;DHT22;9719;49.322;8.536;2023-09-30T11:12:13;21.80;69.80
19174;DHT22;9719;49.322;8.536;2023-09-30T11:17:22;21.30;69.90
19174;DHT22;9719;49.322;8.536;2023-09-30T11:22:24;21.70;70.70
19174;DHT22;9719;49.322;8.536;2023-09-30T11:27:27;22.30;66.60
19174;DHT22;9719;49.322;8.536;2023-09-30T11:32:30;21.80;67.40
19174;DHT22;9719;49.322;8.536;2023-09-30T11:37:35;21.90;69.20
19174;DHT22;9719;49.322;8.536;2023-09-30T11:42:37;22.50;66.20
19174;DHT22;9719;49.322;8.536;2023-09-30T11:47:40;22.80;65.00
19174;DHT22;9719;49.322;8.536;2023-09-30T11:52:44;22.60;65.60
19174;DHT22;9719;49.322;8.536;2023-09-30T11:57:47;23.00;65.90
19174;DHT22;9719;49.322;8.536;2023-09-30T12:02:52;22.60;65.00
19174;DHT22;9719;49.322;8.536;2023-09-30T12:07:54;22.40;66.00
19174;DHT22;9719;49.322;8.536;2023-09-30T12:12:56;21.70;67.50
19174;DHT22;9719;49.322;8.536;2023-09-30T12:17:59;22.50;65.80
19174;DHT22;9719;49.322;8.536;2023-09-30T12:23:00;22.40;64.90
19174;DHT22;9719;49.322;8.536;2023-09-30T12:28:02;22.40;63.70
19174;DHT22;9719;49.322;8.536;2023-09-30T12:33:06;22.60;64.40
19174;DHT22;9719;49.322;8.536;2023-09-30T12:38:08;23.20;61.80
19174;DHT22;9719;49.322;8.536;2023-09-30T12:43:09;23.20;63.70
19174;DHT22;9719;49.322;8.536;2023-09-30T12:48:13;23.40;62.20
19174;DHT22;9719;49.322;8.536;2023-09-30T12:53:14;23.20;60.50
19174;DHT22;9719;49.322;8.536;2023-09-30T12:58:16;23.20;61.60
19174;DHT22;9719;49.322;8.536;2023-09-30T13:03:19;23.00;61.40
19174;DHT22;9719;49.322;8.536;2023-09-30T13:08:21;22.80;62.50
19174;DHT22;9719;49.322;8.536;2023-09-30T13:13:22;22.90;63.30
19174;DHT22;9719;49.322;8.536;2023-09-30T13:18:26;23.10;60.70
19174;DHT22;9719;49.322;8.536;2023-09-30T13:23:27;22.70;60.40
19174;DHT22;9719;49.322;8.536;2023-09-30T13:28:29;22.90;62.40
19174;DHT22;9719;49.322;8.536;2023-09-30T13:33:32;23.20;59.60
19174;DHT22;9719;49.322;8.536;2023-09-30T13:38:34;22.70;62.40
19174;DHT22;9719;49.322;8.536;2023-09-30T13:43:35;21.80;64.90
19174;DHT22;9719;49.322;8.536;2023-09-30T13:48:39;21.60;65.20
19174;DHT22;9719;49.322;8.536;2023-09-30T13:53:40;21.60;65.80
19174;DHT22;9719;49.322;8.536;2023-09-30T13:58:43;21.70;65.30
19174;DHT22;9719;49.322;8.536;2023-09-30T14:03:46;22.30;65.50
19174;DHT22;9719;49.322;8.536;2023-09-30T14:08:48;22.60;64.10
19174;DHT22;9719;49.322;8.536;2023-09-30T14:13:50;22.40;63.80
19174;DHT22;9719;49.322;8.536;2023-09-30T14:18:53;22.10;64.10
19174;DHT22;9719;49.322;8.536;2023-09-30T14:23:56;22.10;66.00
19174;DHT22;9719;49.322;8.536;2023-09-30T14:28:57;22.10;66.00
19174;DHT22;9719;49.322;8.536;2023-09-30T14:34:00;22.00;66.00
19174;DHT22;9719;49.322;8.536;2023-09-30T14:39:02;22.00;65.00
19174;DHT22;9719;49.322;8.536;2023-09-30T14:44:05;22.00;65.30
19174;DHT22;9719;49.322;8.536;2023-09-30T14:49:09;21.90;66.70
19174;DHT22;9719;49.322;8.536;2023-09-30T14:54:11;22.00;65.80
19174;DHT22;9719;49.322;8.536;2023-09-30T14:59:13;22.10;65.80
19174;DHT22;9719;49.322;8.536;2023-09-30T15:04:16;22.10;64.90
19174;DHT22;9719;49.322;8.536;2023-09-30T15:09:18;22.20;64.00
19174;DHT22;9719;49.322;8.536;2023-09-30T15:14:20;21.90;65.10
19174;DHT22;9719;49.322;8.536;2023-09-30T15:19:23;21.80;66.10
19174;DHT22;9719;49.322;8.536;2023-09-30T15:24:24;21.60;65.30
19174;DHT22;9719;49.322;8.536;2023-09-30T15:29:26;21.90;65.10
19174;DHT22;9719;49.322;8.536;2023-09-30T15:34:29;21.70;65.70
19174;DHT22;9719;49.322;8.536;2023-09-30T15:39:37;21.80;66.00
19174;DHT22;9719;49.322;8.536;2023-09-30T15:44:39;21.80;64.80
19174;DHT22;9719;49.322;8.536;2023-09-30T15:49:42;21.80;66.70
19174;DHT22;9719;49.322;8.536;2023-09-30T15:54:43;21.50;66.40
19174;DHT22;9719;49.322;8.536;2023-09-30T15:59:45;21.50;67.30
19174;DHT22;9719;49.322;8.536;2023-09-30T16:04:49;21.40;66.70
19174;DHT22;9719;49.322;8.536;2023-09-30T16:09:50;21.10;68.30
19174;DHT22;9719;49.322;8.536;2023-09-30T16:14:52;20.90;68.90
19174;DHT22;9719;49.322;8.536;2023-09-30T16:19:55;20.70;70.50
19174;DHT22;9719;49.322;8.536;2023-09-30T16:24:57;20.60;70.90
19174;DHT22;9719;49.322;8.536;2023-09-30T16:30:01;20.60;72.30
19174;DHT22;9719;49.322;8.536;2023-09-30T16:35:05;20.30;74.20
19174;DHT22;9719;49.322;8.536;2023-09-30T16:40:08;19.90;76.50
19174;DHT22;9719;49.322;8.536;2023-09-30T16:45:10;19.80;73.40
19174;DHT22;9719;49.322;8.536;2023-09-30T16:50:13;19.80;72.80
19174;DHT22;9719;49.322;8.536;2023-09-30T16:55:15;19.70;73.00
19174;DHT22;9719;49.322;8.536;2023-09-30T17:00:16;19.60;75.00
19174;DHT22;9719;49.322;8.536;2023-09-30T17:05:20;19.40;74.00
19174;DHT22;9719;49.322;8.536;2023-09-30T17:10:22;19.30;74.90
19174;DHT22;9719;49.322;8.536;2023-09-30T17:15:25;19.10;74.90
19174;DHT22;9719;49.322;8.536;2023-09-30T17:20:28;19.10;75.90
19174;DHT22;9719;49.322;8.536;2023-09-30T17:25:30;19.10;76.70
19174;DHT22;9719;49.322;8.536;2023-09-30T17:30:33;18.90;78.00
19174;DHT22;9719;49.322;8.536;2023-09-30T17:35:40;18.70;78.60
19174;DHT22;9719;49.322;8.536;2023-09-30T17:40:42;18.40;79.40
19174;DHT22;9719;49.322;8.536;2023-09-30T17:45:43;18.20;79.90
19174;DHT22;9719;49.322;8.536;2023-09-30T17:50:46;17.90;80.60
19174;DHT22;9719;49.322;8.536;2023-09-30T17:55:48;17.80;81.90
19174;DHT22;9719;49.322;8.536;2023-09-30T18:00:50;17.50;84.10
19174;DHT22;9719;49.322;8.536;2023-09-30T18:05:54;17.50;85.30
19174;DHT22;9719;49.322;8.536;2023-09-30T18:10:55;17.30;86.60
19174;DHT22;9719;49.322;8.536;2023-09-30T18:15:59;17.00;86.40
19174;DHT22;9719;49.322;8.536;2023-09-30T18:21:02;17.00;87.70
19174;DHT22;9719;49.322;8.536;2023-09-30T18:26:03;16.90;87.90
19174;DHT22;9719;49.322;8.536;2023-09-30T18:31:06;16.80;89.30
19174;DHT22;9719;49.322;8.536;2023-09-30T18:36:09;16.50;89.20
19174;DHT22;9719;49.322;8.536;2023-09-30T18:41:11;16.10;90.10
19174;DHT22;9719;49.322;8.536;2023-09-30T18:46:15;16.10;92.00
19174;DHT22;9719;49.322;8.536;2023-09-30T18:51:21;15.90;92.00
19174;DHT22;9719;49.322;8.536;2023-09-30T18:56:23;15.80;92.70
19174;DHT22;9719;49.322;8.536;2023-09-30T19:01:25;15.80;94.10
19174;DHT22;9719;49.322;8.536;2023-09-30T19:06:29;15.80;95.20
19174;DHT22;9719;49.322;8.536;2023-09-30T19:11:31;15.90;96.90
19174;DHT22;9719;49.322;8.536;2023-09-30T19:16:33;15.60;96.90
19174;DHT22;9719;49.322;8.536;2023-09-30T19:21:38;15.40;97.90
19174;DHT22;9719;49.322;8.536;2023-09-30T19:26:40;15.40;98.90
19174;DHT22;9719;49.322;8.536;2023-09-30T19:31:42;15.40;99.30
19174;DHT22;9719;49.322;8.536;2023-09-30T19:36:45;15.20;99.10
19174;DHT22;9719;49.322;8.536;2023-09-30T19:41:47;15.00;99.40
19174;DHT22;9719;49.322;8.536;2023-09-30T19:46:49;14.80;99.80
19174;DHT22;9719;49.322;8.536;2023-09-30T19:51:52;14.90;99.90
19174;DHT22;9719;49.322;8.536;2023-09-30T19:56:55;14.70;99.90
19174;DHT22;9719;49.322;8.536;2023-09-30T20:01:57;14.70;99.90
19174;DHT22;9719;49.322;8.536;2023-09-30T20:07:01;14.80;99.90
19174;DHT22;9719;49.322;8.536;2023-09-30T20:12:04;14.60;99.90
19174;DHT22;9719;49.322;8.536;2023-09-30T20:17:07;14.40;99.90
19174;DHT22;9719;49.322;8.536;2023-09-30T20:22:10;14.20;99.90
19174;DHT22;9719;49.322;8.536;2023-09-30T20:27:11;14.10;99.90
19174;DHT22;9719;49.322;8.536;2023-09-30T20:32:13;14.00;99.90
19174;DHT22;9719;49.322;8.536;2023-09-30T20:37:16;13.70;99.90
19174;DHT22;9719;49.322;8.536;2023-09-30T20:42:18;13.50;99.90
19174;DHT22;9719;49.322;8.536;2023-09-30T20:47:20;13.50;99.90
19174;DHT22;9719;49.322;8.536;2023-09-30T20:52:23;13.50;99.90
19174;DHT22;9719;49.322;8.536;2023-09-30T20:57:25;13.60;99.90
19174;DHT22;9719;49.322;8.536;2023-09-30T21:02:26;13.50;99.90
19174;DHT22;9719;49.322;8.536;2023-09-30T21:07:30;13.50;99.90
19174;DHT22;9719;49.322;8.536;2023-09-30T21:12:31;13.30;99.90
19174;DHT22;9719;49.322;8.536;2023-09-30T21:17:33;13.00;99.90
19174;DHT22;9719;49.322;8.536;2023-09-30T21:22:36;12.80;99.90
19174;DHT22;9719;49.322;8.536;2023-09-30T21:27:38;12.70;99.90
19174;DHT22;9719;49.322;8.536;2023-09-30T21:32:40;12.90;99.90
19174;DHT22;9719;49.322;8.536;2023-09-30T21:37:43;13.00;99.90
19174;DHT22;9719;49.322;8.536;2023-09-30T21:42:45;12.90;99.90
19174;DHT22;9719;49.322;8.536;2023-09-30T21:47:46;13.00;99.90
19174;DHT22;9719;49.322;8.536;2023-09-30T21:52:50;12.90;99.90
19174;DHT22;9719;49.322;8.536;2023-09-30T21:57:51;13.00;99.90
19174;DHT22;9719;49.322;8.536;2023-09-30T22:02:53;12.90;99.90
19174;DHT22;9719;49.322;8.536;2023-09-30T22:07:56;12.90;99.90
19174;DHT22;9719;49.322;8.536;2023-09-30T22:12:57;12.60;99.90
19174;DHT22;9719;49.322;8.536;2023-09-30T22:17:59;12.60;99.90
19174;DHT22;9719;49.322;8.536;2023-09-30T22:23:03;12.60;99.90
19174;DHT22;9719;49.322;8.536;2023-09-30T22:28:06;12.60;99.90
19174;DHT22;9719;49.322;8.536;2023-09-30T22:33:08;12.50;99.90
19174;DHT22;9719;49.322;8.536;2023-09-30T22:38:11;12.20;99.90
19174;DHT22;9719;49.322;8.536;2023-09-30T22:43:13;12.20;99.90
19174;DHT22;9719;49.322;8.536;2023-09-30T22:48:15;12.10;99.90
19174;DHT22;9719;49.322;8.536;2023-09-30T22:53:18;12.20;99.90
19174;DHT22;9719;49.322;8.536;2023-09-30T22:58:20;12.40;99.90
19174;DHT22;9719;49.322;8.536;2023-09-30T23:03:21;12.40;99.90
19174;DHT22;9719;49.322;8.536;2023-09-30T23:08:24;12.40;99.90
19174;DHT22;9719;49.322;8.536;2023-09-30T23:13:26;12.30;99.90
19174;DHT22;9719;49.322;8.536;2023-09-30T23:18:28;12.30;99.90
19174;DHT22;9719;49.322;8.536;2023-09-30T23:23:31;12.40;99.90
19174;DHT22;9719;49.322;8.536;2023-09-30T23:28:33;12.60;99.90
19174;DHT22;9719;49.322;8.536;2023-09-30T23:33:35;12.70;99.90
19174;DHT22;9719;49.322;8.536;2023-09-30T23:38:40;12.70;99.90
19174;DHT22;9719;49.322;8.536;2023-09-30T23:43:45;12.80;99.90
19174;DHT22;9719;49.322;8.536;2023-09-30T23:48:46;12.70;99.90
19174;DHT22;9719;49.322;8.536;2023-09-30T23:53:50;12.80;99.90
19174;DHT22;9719;49.322;8.536;2023-09-30T23:58:52;12.80;99.90
